Time;durP1;ratioP1;P1;durP2;ratioP2;P2;SDS_P1;SDS_P2;PMS_P1;PMS_P2;Temp;Humidity;BMP_temperature;BMP_pressure;BME280_temperature;BME280_humidity;BME280_pressure;Samples;Min_cycle;Max_cycle;Signal;HPM_P1;HPM_P2
2023/08/11 00:01:07;;;;;;;7.93;4.85;;;;;;;;;;5072005;28;20053;-35
2023/08/11 00:03:34;;;;;;;7.13;4.47;;;20.20;87.00;;;;;;5070342;28;20049;-29
2023/08/11 00:06:00;;;;;;;7.93;4.78;;;19.90;74.90;;;;;;5072218;28;20127;-30
2023/08/11 00:08:29;;;;;;;8.68;4.78;;;19.60;80.60;;;;;;5071807;28;20128;-31
2023/08/11 00:10:55;;;;;;;7.53;4.90;;;20.10;78.30;;;;;;5072207;28;20151;-30
2023/08/11 00:13:22;;;;;;;6.35;4.47;;;19.90;86.40;;;;;;5071712;28;20439;-30
2023/08/11 00:15:49;;;;;;;7.82;4.47;;;20.10;86.20;;;;;;5071811;28;20132;-30
2023/08/11 00:18:15;;;;;;;6.05;3.95;;;19.80;72.80;;;;;;5071740;28;20549;-31
2023/08/11 00:20:42;;;;;;;6.85;4.50;;;19.70;85.90;;;;;;5066496;28;20048;-30
2023/08/11 00:23:09;;;;;;;6.05;4.35;;;20.20;87.10;;;;;;5064647;28;20131;-29
2023/08/11 00:25:37;;;;;;;7.05;4.70;;;19.70;77.00;;;;;;5071881;28;20095;-30
2023/08/11 00:28:05;;;;;;;6.50;4.35;;;19.10;85.60;;;;;;5071733;28;20485;-30
2023/08/11 00:30:32;;;;;;;6.30;4.30;;;;;;;;;;5071625;28;20615;-32
2023/08/11 00:32:59;;;;;;;6.57;4.32;;;19.70;86.20;;;;;;5071498;28;20568;-30
2023/08/11 00:35:26;;;;;;;5.95;4.70;;;;;;;;;;5071860;28;20080;-29
2023/08/11 00:37:52;;;;;;;6.20;4.10;;;20.00;86.40;;;;;;5061238;28;20136;-30
2023/08/11 00:40:19;;;;;;;6.93;4.38;;;20.30;86.30;;;;;;5051345;28;20477;-29
2023/08/11 00:42:49;;;;;;;6.72;4.00;;;19.60;72.80;;;;;;5051313;28;20509;-30
2023/08/11 00:45:16;;;;;;;6.18;4.18;;;19.80;86.10;;;;;;5051645;28;20124;-30
2023/08/11 00:47:42;;;;;;;7.57;4.85;;;20.10;81.10;;;;;;5051312;28;20084;-31
2023/08/11 00:50:10;;;;;;;6.05;4.22;;;19.70;86.90;;;;;;5051773;28;20128;-30
2023/08/11 00:52:37;;;;;;;7.25;4.13;;;;;;;;;;5051569;28;20114;-30
2023/08/11 00:55:04;;;;;;;4.75;3.70;;;19.00;86.00;;;;;;5051746;28;20128;-30
2023/08/11 00:57:32;;;;;;;6.13;3.88;;;19.90;86.40;;;;;;5051505;28;20582;-30
2023/08/11 01:00:00;;;;;;;5.95;3.97;;;19.90;68.60;;;;;;5051445;28;20053;-30
2023/08/11 01:02:27;;;;;;;5.18;4.00;;;20.40;82.00;;;;;;5050954;28;20565;-30
2023/08/11 01:04:54;;;;;;;5.50;4.03;;;;;;;;;;5051475;28;20077;-30
2023/08/11 01:07:24;;;;;;;5.43;3.70;;;19.50;71.00;;;;;;5051621;28;20080;-31
2023/08/11 01:09:55;;;;;;;6.30;3.92;;;19.90;68.60;;;;;;5066872;28;20611;-33
2023/08/11 01:12:25;;;;;;;6.28;4.38;;;19.50;85.80;;;;;;5069333;28;20143;-30
2023/08/11 01:14:56;;;;;;;5.95;3.88;;;19.40;81.40;;;;;;5071380;28;20056;-30
2023/08/11 01:17:24;;;;;;;6.72;3.95;;;19.90;68.60;;;;;;5071526;28;20131;-33
2023/08/11 01:19:52;;;;;;;5.85;4.00;;;;;;;;;;5071436;28;20128;-33
2023/08/11 01:22:20;;;;;;;5.75;3.80;;;19.90;86.30;;;;;;5071198;28;20052;-30
2023/08/11 01:24:48;;;;;;;7.47;4.72;;;20.00;86.10;;;;;;5070500;28;20123;-30
2023/08/11 01:27:15;;;;;;;5.40;3.97;;;19.80;86.20;;;;;;5071324;28;20124;-29
2023/08/11 01:29:42;;;;;;;5.97;3.97;;;19.60;78.20;;;;;;5071116;28;20131;-30
2023/08/11 01:32:09;;;;;;;6.00;3.92;;;19.80;86.20;;;;;;5071074;28;20131;-30
2023/08/11 01:34:36;;;;;;;5.93;3.70;;;;;;;;;;5071131;28;20059;-34
2023/08/11 01:37:04;;;;;;;5.72;3.83;;;;;;;;;;5070723;28;20044;-30
2023/08/11 01:39:31;;;;;;;5.88;3.90;;;19.50;86.10;;;;;;5071024;28;20045;-30
2023/08/11 01:41:59;;;;;;;5.03;3.75;;;19.90;86.30;;;;;;5051213;28;20124;-29
2023/08/11 01:44:26;;;;;;;4.75;3.60;;;19.80;86.70;;;;;;5050982;28;20608;-29
2023/08/11 01:46:53;;;;;;;5.05;3.55;;;20.20;81.10;;;;;;5051076;28;20140;-31
2023/08/11 01:49:21;;;;;;;5.28;4.03;;;;;;;;;;5054543;28;20049;-33
2023/08/11 01:51:47;;;;;;;5.13;3.97;;;19.70;75.00;;;;;;5054693;28;20049;-30
2023/08/11 01:54:14;;;;;;;5.35;3.70;;;21.40;69.30;;;;;;5054462;28;20068;-33
2023/08/11 01:56:41;;;;;;;4.72;3.72;;;20.10;86.40;;;;;;5054569;28;20131;-31
2023/08/11 01:59:14;;;;;;;6.25;3.90;;;19.80;68.40;;;;;;5054399;28;20045;-35
2023/08/11 02:01:41;;;;;;;6.20;3.97;;;20.50;86.30;;;;;;5054557;28;20083;-30
2023/08/11 02:04:08;;;;;;;5.03;3.60;;;19.30;86.50;;;;;;5054209;28;20076;-30
2023/08/11 02:06:36;;;;;;;5.20;3.80;;;;;;;;;;5054361;28;20045;-31
2023/08/11 02:09:04;;;;;;;3.90;3.47;;;19.90;86.00;;;;;;5059309;28;20437;-30
2023/08/11 02:11:31;;;;;;;5.55;3.92;;;;;;;;;;5069037;28;20465;-33
2023/08/11 02:13:58;;;;;;;5.60;3.83;;;19.10;85.60;;;;;;5054216;28;20123;-30
2023/08/11 02:16:26;;;;;;;4.72;3.53;;;19.80;68.40;;;;;;5054254;28;20131;-30
2023/08/11 02:18:54;;;;;;;5.15;3.58;;;;;;;;;;5054441;28;20136;-30
2023/08/11 02:21:21;;;;;;;4.53;3.30;;;20.00;86.00;;;;;;5054012;28;20057;-30
2023/08/11 02:23:48;;;;;;;4.78;3.35;;;20.20;76.60;;;;;;5053580;28;20048;-31
2023/08/11 02:26:15;;;;;;;5.15;3.70;;;19.40;85.70;;;;;;5053964;28;20049;-29
2023/08/11 02:28:42;;;;;;;5.78;3.47;;;19.50;77.50;;;;;;5062199;28;20080;-30
2023/08/11 02:31:09;;;;;;;4.32;3.33;;;19.10;76.60;;;;;;5054079;28;20079;-29
2023/08/11 02:33:37;;;;;;;4.70;3.50;;;20.10;76.60;;;;;;5053466;28;20052;-30
2023/08/11 02:36:04;;;;;;;4.18;3.40;;;18.80;75.80;;;;;;5055409;28;20139;-31
2023/08/11 02:38:32;;;;;;;6.00;3.78;;;20.10;86.40;;;;;;5073666;28;20056;-30
2023/08/11 02:40:58;;;;;;;4.57;3.22;;;19.90;85.90;;;;;;5073597;28;20128;-30
2023/08/11 02:43:25;;;;;;;5.20;3.63;;;20.00;86.80;;;;;;5073363;28;20581;-29
2023/08/11 02:45:52;;;;;;;5.68;3.50;;;;;;;;;;5063387;28;20191;-34
2023/08/11 02:48:19;;;;;;;5.28;3.50;;;20.70;86.40;;;;;;5053490;28;20132;-30
2023/08/11 02:50:47;;;;;;;5.10;3.50;;;20.10;86.40;;;;;;5053362;28;20469;-29
2023/08/11 02:53:14;;;;;;;5.63;3.67;;;19.40;85.60;;;;;;5053259;28;20083;-30
2023/08/11 02:55:41;;;;;;;4.78;3.42;;;19.40;85.70;;;;;;5053583;28;20052;-29
2023/08/11 02:58:07;;;;;;;5.32;3.42;;;20.10;86.10;;;;;;5053154;28;20053;-30
2023/08/11 03:00:34;;;;;;;6.03;3.13;;;;;;;;;;5053286;28;20140;-33
2023/08/11 03:03:02;;;;;;;4.47;3.20;;;19.70;86.20;;;;;;5052907;28;20423;-30
2023/08/11 03:05:29;;;;;;;5.88;3.53;;;;;;;;;;5059677;28;20391;-31
2023/08/11 03:07:57;;;;;;;5.00;3.30;;;19.70;68.20;;;;;;5073125;28;20528;-33
2023/08/11 03:10:25;;;;;;;4.63;3.50;;;;;;;;;;5072886;28;20588;-33
2023/08/11 03:12:51;;;;;;;4.32;3.05;;;20.00;86.30;;;;;;5072939;28;20127;-30
2023/08/11 03:15:19;;;;;;;4.47;3.40;;;20.10;80.30;;;;;;5073133;28;20127;-29
2023/08/11 03:17:46;;;;;;;4.38;3.30;;;19.50;70.00;;;;;;5072778;28;20091;-30
2023/08/11 03:20:15;;;;;;;5.00;3.55;;;19.40;73.80;;;;;;5058667;28;20132;-31
2023/08/11 03:22:42;;;;;;;4.15;3.38;;;19.40;85.70;;;;;;5066355;28;20077;-29
2023/08/11 03:25:11;;;;;;;3.65;3.00;;;19.10;86.40;;;;;;5072978;28;20128;-30
2023/08/11 03:27:39;;;;;;;3.90;3.38;;;19.70;81.20;;;;;;5072556;28;20106;-30
2023/08/11 03:30:08;;;;;;;4.38;3.38;;;20.60;86.20;;;;;;5072735;28;20048;-31
2023/08/11 03:32:35;;;;;;;4.47;3.45;;;19.30;86.00;;;;;;5072561;28;20154;-30
2023/08/11 03:35:02;;;;;;;3.92;3.20;;;;;;;;;;5072300;28;20131;-33
2023/08/11 03:37:29;;;;;;;4.40;3.13;;;19.30;85.90;;;;;;5067404;28;20083;-30
2023/08/11 03:39:56;;;;;;;3.30;2.75;;;;;;;;;;5072484;28;20484;-31
2023/08/11 03:42:24;;;;;;;4.38;3.20;;;19.60;85.60;;;;;;5072362;28;20052;-35
2023/08/11 03:44:51;;;;;;;3.80;3.10;;;19.70;86.70;;;;;;5072438;28;20127;-35
2023/08/11 03:47:19;;;;;;;4.20;3.20;;;19.30;85.90;;;;;;5072670;28;20048;-35
2023/08/11 03:49:46;;;;;;;4.15;3.08;;;;;;;;;;5072134;28;20596;-34
2023/08/11 03:52:13;;;;;;;3.60;3.15;;;19.60;86.00;;;;;;5072334;28;20052;-34
2023/08/11 03:54:40;;;;;;;3.65;3.13;;;;;;;;;;5054236;28;20120;-35
2023/08/11 03:57:07;;;;;;;4.05;3.20;;;19.80;85.80;;;;;;5052269;28;20135;-38
2023/08/11 03:59:36;;;;;;;3.35;2.80;;;19.70;68.10;;;;;;5052313;28;20049;-35
2023/08/11 04:02:02;;;;;;;4.25;3.20;;;20.70;80.70;;;;;;5060987;28;20105;-34
2023/08/11 04:04:29;;;;;;;4.15;3.10;;;19.60;85.70;;;;;;5072263;28;20131;-35
2023/08/11 04:06:56;;;;;;;4.32;2.90;;;20.70;86.20;;;;;;5072254;28;20652;-36
2023/08/11 04:09:23;;;;;;;4.78;3.10;;;;;;;;;;5071655;28;20409;-34
2023/08/11 04:11:50;;;;;;;3.55;3.00;;;;;;;;;;5052657;28;20488;-35
2023/08/11 04:14:17;;;;;;;3.42;2.83;;;19.20;82.70;;;;;;5051926;28;20114;-35
2023/08/11 04:16:46;;;;;;;4.18;2.78;;;18.80;85.30;;;;;;5051938;28;20137;-36
2023/08/11 04:19:13;;;;;;;4.53;2.92;;;19.40;81.90;;;;;;5052122;28;20421;-36
2023/08/11 04:21:40;;;;;;;3.67;2.75;;;19.50;85.70;;;;;;5059706;28;20051;-37
2023/08/11 04:24:07;;;;;;;3.30;2.92;;;19.20;71.90;;;;;;5056900;28;20127;-35
2023/08/11 04:26:34;;;;;;;3.20;2.67;;;19.30;85.60;;;;;;5052093;28;20091;-36
2023/08/11 04:29:01;;;;;;;4.95;3.40;;;;;;;;;;5071524;28;20068;-32
2023/08/11 04:31:29;;;;;;;3.60;2.75;;;18.90;74.60;;;;;;5071978;28;20048;-36
2023/08/11 04:33:57;;;;;;;4.00;2.80;;;19.80;85.80;;;;;;5071697;28;20105;-36
2023/08/11 04:36:24;;;;;;;4.15;3.30;;;20.40;85.70;;;;;;5071120;28;20123;-32
2023/08/11 04:38:50;;;;;;;2.83;2.47;;;19.70;86.20;;;;;;5053251;28;20124;-35
2023/08/11 04:41:18;;;;;;;3.70;3.08;;;;;;;;;;5062690;28;20040;-34
2023/08/11 04:43:44;;;;;;;3.65;2.80;;;19.30;86.00;;;;;;5070793;28;20136;-35
2023/08/11 04:46:11;;;;;;;5.88;3.10;;;19.30;85.70;;;;;;5071871;28;20123;-36
2023/08/11 04:48:38;;;;;;;4.15;3.08;;;20.10;72.20;;;;;;5071871;28;20135;-36
2023/08/11 04:51:06;;;;;;;3.80;2.97;;;19.60;68.00;;;;;;5071338;28;20131;-34
2023/08/11 04:53:33;;;;;;;3.25;2.80;;;19.80;86.20;;;;;;5070541;28;20048;-35
2023/08/11 04:56:00;;;;;;;3.97;2.90;;;;;;;;;;5057250;28;20136;-32
2023/08/11 04:58:26;;;;;;;4.28;3.10;;;19.70;86.10;;;;;;5061904;28;20131;-35
2023/08/11 05:00:54;;;;;;;3.75;2.55;;;;;;;;;;5071750;28;20135;-35
2023/08/11 05:03:20;;;;;;;2.90;2.60;;;19.30;83.40;;;;;;5071740;28;20135;-36
2023/08/11 05:05:47;;;;;;;4.13;2.83;;;19.30;86.00;;;;;;5071477;28;20128;-34
2023/08/11 05:08:15;;;;;;;4.78;2.90;;;20.00;85.90;;;;;;5071671;28;20155;-36
2023/08/11 05:10:42;;;;;;;3.20;2.70;;;19.60;86.10;;;;;;5071454;28;20131;-34
2023/08/11 05:13:08;;;;;;;4.90;2.60;;;19.70;75.20;;;;;;5057111;28;20135;-35
2023/08/11 05:15:35;;;;;;;4.65;3.10;;;19.20;85.50;;;;;;5053822;28;20468;-34
2023/08/11 05:18:02;;;;;;;4.28;2.78;;;19.90;85.90;;;;;;5051370;28;20132;-34
2023/08/11 05:20:29;;;;;;;3.72;2.60;;;19.90;86.30;;;;;;5051287;28;20049;-34
2023/08/11 05:22:56;;;;;;;3.40;2.58;;;19.30;86.00;;;;;;5070585;28;20052;-33
2023/08/11 05:25:24;;;;;;;5.50;3.17;;;19.60;68.00;;;;;;5075198;28;20135;-33
2023/08/11 05:27:51;;;;;;;3.28;2.50;;;;;;;;;;5075199;28;20127;-33
2023/08/11 05:30:18;;;;;;;3.78;2.88;;;;;;;;;;5060645;28;20163;-35
2023/08/11 05:32:45;;;;;;;3.30;2.80;;;;;;;;;;5054995;28;20128;-33
2023/08/11 05:35:12;;;;;;;4.68;2.88;;;20.50;86.20;;;;;;5055137;28;20215;-35
2023/08/11 05:37:41;;;;;;;3.67;2.58;;;20.60;76.90;;;;;;5069848;28;20059;-35
2023/08/11 05:40:09;;;;;;;3.58;2.47;;;19.00;80.50;;;;;;5074654;28;20053;-35
2023/08/11 05:42:38;;;;;;;3.65;2.60;;;19.70;80.40;;;;;;5074502;28;20556;-30
2023/08/11 05:45:07;;;;;;;3.33;2.90;;;19.40;85.60;;;;;;5074987;28;20131;-30
2023/08/11 05:47:34;;;;;;;3.72;2.60;;;19.90;86.20;;;;;;5074260;28;20067;-30
2023/08/11 05:50:01;;;;;;;3.53;2.65;;;18.40;85.10;;;;;;5074836;28;20076;-30
2023/08/11 05:52:28;;;;;;;2.92;2.53;;;;;;;;;;5074523;28;20140;-34
2023/08/11 05:54:55;;;;;;;5.43;2.58;;;;;;;;;;5074503;28;20131;-30
2023/08/11 05:57:22;;;;;;;4.22;2.40;;;;;;;;;;5074852;28;20131;-35
2023/08/11 05:59:50;;;;;;;3.78;2.50;;;19.70;85.70;;;;;;5074685;28;20128;-30
2023/08/11 06:02:16;;;;;;;3.20;2.75;;;19.30;85.50;;;;;;5074495;28;20453;-30
2023/08/11 06:04:44;;;;;;;3.40;2.50;;;19.20;85.60;;;;;;5072793;28;20131;-30
2023/08/11 06:07:11;;;;;;;4.38;2.58;;;18.40;85.50;;;;;;5055382;28;20579;-30
2023/08/11 06:09:38;;;;;;;3.40;2.60;;;19.70;86.20;;;;;;5057453;28;20072;-30
2023/08/11 06:12:05;;;;;;;3.78;2.83;;;18.70;85.50;;;;;;5063273;28;20051;-29
2023/08/11 06:14:33;;;;;;;3.75;2.50;;;;;;;;;;5061569;28;20072;-36
2023/08/11 06:17:01;;;;;;;3.05;2.40;;;19.60;68.00;;;;;;5060029;28;20045;-32
2023/08/11 06:19:28;;;;;;;3.97;2.50;;;19.30;85.90;;;;;;5063740;28;20148;-29
2023/08/11 06:21:55;;;;;;;3.33;2.50;;;;;;;;;;5059619;28;20148;-32
2023/08/11 06:24:23;;;;;;;2.85;2.30;;;19.20;85.60;;;;;;5054174;28;20049;-30
2023/08/11 06:26:51;;;;;;;3.42;2.40;;;19.50;86.50;;;;;;5055801;28;20048;-30
2023/08/11 06:29:18;;;;;;;3.38;2.70;;;19.30;85.70;;;;;;5074002;28;20079;-29
2023/08/11 06:31:45;;;;;;;3.40;2.20;;;;;;;;;;5074067;28;20055;-34
2023/08/11 06:34:16;;;;;;;2.70;2.30;;;19.90;86.20;;;;;;5073439;28;20136;-30
2023/08/11 06:36:44;;;;;;;2.75;2.40;;;19.30;85.90;;;;;;5072449;28;20041;-30
2023/08/11 06:39:10;;;;;;;3.10;2.40;;;20.00;84.20;;;;;;5053951;28;20210;-30
2023/08/11 06:41:38;;;;;;;2.83;2.50;;;;;;;;;;5054046;28;20127;-32
2023/08/11 06:44:05;;;;;;;3.58;2.42;;;19.70;85.80;;;;;;5053747;28;20616;-30
2023/08/11 06:46:32;;;;;;;2.72;2.40;;;19.90;86.10;;;;;;5053400;28;20125;-30
2023/08/11 06:48:58;;;;;;;3.58;2.80;;;19.70;86.20;;;;;;5062438;28;20124;-35
2023/08/11 06:51:26;;;;;;;2.90;2.30;;;19.60;68.10;;;;;;5067444;28;20139;-32
2023/08/11 06:53:54;;;;;;;2.90;2.50;;;;;;;;;;5070495;28;20044;-36
2023/08/11 06:56:20;;;;;;;4.78;2.40;;;19.50;85.90;;;;;;5053561;28;20131;-37
2023/08/11 06:58:47;;;;;;;4.00;2.70;;;19.30;85.90;;;;;;5053611;28;20129;-34
2023/08/11 07:01:17;;;;;;;3.33;2.50;;;19.60;71.60;;;;;;5053015;28;20131;-35
2023/08/11 07:03:44;;;;;;;5.07;2.63;;;19.80;70.70;;;;;;5053554;28;20052;-35
2023/08/11 07:06:11;;;;;;;3.55;2.58;;;20.40;86.60;;;;;;5053482;28;20130;-37
2023/08/11 07:08:39;;;;;;;3.05;2.47;;;19.30;68.50;;;;;;5053270;28;20479;-36
2023/08/11 07:11:05;;;;;;;2.30;2.00;;;19.60;86.20;;;;;;5054270;28;20136;-36
2023/08/11 07:13:32;;;;;;;2.40;2.13;;;19.00;78.50;;;;;;5058062;28;20052;-39
2023/08/11 07:15:59;;;;;;;3.30;2.33;;;19.20;86.80;;;;;;5053244;28;20076;-38
2023/08/11 07:18:27;;;;;;;4.18;2.40;;;20.50;86.70;;;;;;5053088;28;20158;-37
2023/08/11 07:20:53;;;;;;;5.38;2.40;;;20.10;81.90;;;;;;5055624;28;20041;-37
2023/08/11 07:23:21;;;;;;;2.92;2.30;;;;;;;;;;5070111;28;20127;-34
2023/08/11 07:25:49;;;;;;;2.83;2.20;;;19.60;86.10;;;;;;5072746;28;20075;-38
2023/08/11 07:28:15;;;;;;;3.10;2.30;;;20.00;86.60;;;;;;5061836;28;20072;-37
2023/08/11 07:30:42;;;;;;;2.20;2.00;;;19.40;72.50;;;;;;5052770;28;20136;-37
2023/08/11 07:33:09;;;;;;;3.47;2.00;;;19.80;84.40;;;;;;5059443;28;20071;-35
2023/08/11 07:35:36;;;;;;;6.43;2.13;;;;;;;;;;5054077;28;20134;-32
2023/08/11 07:38:04;;;;;;;3.05;2.10;;;19.70;68.50;;;;;;5070079;28;20131;-31
2023/08/11 07:40:31;;;;;;;4.65;2.10;;;19.60;86.70;;;;;;5052402;28;20411;-38
2023/08/11 07:42:59;;;;;;;2.83;2.05;;;19.90;86.50;;;;;;5052369;28;20151;-35
2023/08/11 07:45:26;;;;;;;2.28;1.90;;;;;;;;;;5051962;28;20084;-36
2023/08/11 07:47:53;;;;;;;3.33;1.90;;;18.60;77.90;;;;;;5068513;28;20128;-34
2023/08/11 07:50:20;;;;;;;4.07;2.28;;;19.50;85.90;;;;;;5072332;28;20072;-30
2023/08/11 07:52:47;;;;;;;3.13;2.20;;;;;;;;;;5071223;28;20140;-34
2023/08/11 07:55:14;;;;;;;2.78;2.10;;;19.30;86.60;;;;;;5072320;28;20131;-30
2023/08/11 07:57:41;;;;;;;3.05;2.10;;;19.50;86.70;;;;;;5072239;28;20472;-29
2023/08/11 08:00:16;;;;;;;3.17;2.15;;;20.80;75.90;;;;;;5072357;28;20076;-30
2023/08/11 08:02:43;;;;;;;2.15;1.90;;;20.10;86.50;;;;;;5072079;28;20052;-30
2023/08/11 08:05:10;;;;;;;4.15;2.40;;;19.80;71.00;;;;;;5072347;28;20131;-32
2023/08/11 08:07:37;;;;;;;4.07;2.20;;;;;;;;;;5072184;28;20044;-30
2023/08/11 08:10:08;;;;;;;4.03;1.90;;;19.60;68.50;;;;;;5070392;28;20549;-31
2023/08/11 08:12:35;;;;;;;2.20;1.90;;;19.30;85.70;;;;;;5065103;28;20485;-30
2023/08/11 08:15:04;;;;;;;2.42;1.90;;;20.70;82.10;;;;;;5061733;28;20570;-30
2023/08/11 08:17:32;;;;;;;4.25;2.10;;;19.80;86.00;;;;;;5062971;28;20037;-30
2023/08/11 08:19:58;;;;;;;2.22;1.73;;;19.60;86.10;;;;;;5051731;28;20128;-30
2023/08/11 08:22:25;;;;;;;2.85;2.05;;;20.10;86.80;;;;;;5051585;28;20144;-30
2023/08/11 08:24:52;;;;;;;3.00;1.95;;;;;;;;;;5051683;28;20144;-35
2023/08/11 08:27:24;;;;;;;2.75;2.00;;;20.20;85.70;;;;;;5055017;28;20045;-30
2023/08/11 08:29:51;;;;;;;2.08;1.83;;;19.90;71.00;;;;;;5061304;28;20087;-32
2023/08/11 08:32:18;;;;;;;3.75;2.22;;;20.30;85.80;;;;;;5060982;28;20044;-30
2023/08/11 08:34:47;;;;;;;3.67;2.10;;;20.20;83.60;;;;;;5062577;28;20052;-31
2023/08/11 08:37:15;;;;;;;3.60;1.98;;;;;;;;;;5057841;28;20075;-34
2023/08/11 08:39:43;;;;;;;3.28;2.40;;;;;;;;;;5062439;28;20140;-33
2023/08/11 08:42:10;;;;;;;2.70;1.83;;;20.20;85.60;;;;;;5065871;28;20045;-31
2023/08/11 08:44:37;;;;;;;2.70;2.15;;;;;;;;;;5064672;28;20128;-34
2023/08/11 08:47:04;;;;;;;2.22;1.80;;;20.30;67.80;;;;;;5069959;28;20124;-31
2023/08/11 08:49:31;;;;;;;2.67;1.80;;;20.50;83.00;;;;;;5071737;28;20153;-30
2023/08/11 08:52:00;;;;;;;3.33;2.08;;;19.80;84.40;;;;;;5071696;28;20131;-35
2023/08/11 08:54:27;;;;;;;3.35;1.70;;;;;;;;;;5071905;28;20052;-34
2023/08/11 08:56:54;;;;;;;2.90;2.08;;;21.00;71.00;;;;;;5065671;28;20129;-37
2023/08/11 08:59:21;;;;;;;2.33;1.67;;;;;;;;;;5073889;28;20721;-38
2023/08/11 09:01:48;;;;;;;2.35;1.60;;;20.50;84.00;;;;;;5075513;28;20055;-39
2023/08/11 09:04:15;;;;;;;3.25;1.83;;;20.30;70.00;;;;;;5075364;28;20056;-40
2023/08/11 09:06:42;;;;;;;1.70;1.48;;;;;;;;;;5075560;28;20132;-37
2023/08/11 09:09:10;;;;;;;2.58;1.67;;;20.50;84.40;;;;;;5075475;28;20124;-31
2023/08/11 09:11:38;;;;;;;2.03;1.75;;;21.20;84.00;;;;;;5062715;28;20049;-30
2023/08/11 09:14:05;;;;;;;2.92;2.00;;;;;;;;;;5055073;28;20053;-32
2023/08/11 09:16:32;;;;;;;2.10;1.90;;;;;;;;;;5055375;28;20128;-35
2023/08/11 09:18:59;;;;;;;2.17;1.55;;;22.20;84.00;;;;;;5055376;28;20136;-30
2023/08/11 09:21:25;;;;;;;2.08;1.75;;;20.80;83.30;;;;;;5058097;28;20136;-30
2023/08/11 09:23:53;;;;;;;2.17;1.60;;;20.90;66.10;;;;;;5053712;28;20131;-34
2023/08/11 09:26:22;;;;;;;2.42;1.77;;;21.00;79.00;;;;;;5055055;28;20132;-31
2023/08/11 09:28:48;;;;;;;2.53;1.90;;;21.20;73.20;;;;;;5060455;28;20128;-31
2023/08/11 09:31:15;;;;;;;2.50;1.77;;;20.80;83.90;;;;;;5055046;28;20553;-31
2023/08/11 09:33:42;;;;;;;3.00;1.80;;;20.70;82.80;;;;;;5055100;28;20048;-30
2023/08/11 09:36:10;;;;;;;2.53;1.90;;;21.20;71.70;;;;;;5061537;28;20116;-31
2023/08/11 09:38:37;;;;;;;2.53;1.77;;;21.40;68.50;;;;;;5070692;28;20076;-34
2023/08/11 09:41:03;;;;;;;1.92;1.50;;;21.40;82.90;;;;;;5074823;28;20084;-30
2023/08/11 09:43:32;;;;;;;2.42;1.80;;;21.30;65.80;;;;;;5074026;28;20537;-33
2023/08/11 09:45:59;;;;;;;2.53;1.60;;;;;;;;;;5074802;28;20091;-34
2023/08/11 09:48:26;;;;;;;2.00;1.67;;;21.00;83.50;;;;;;5075060;28;20052;-30
2023/08/11 09:50:53;;;;;;;2.35;1.70;;;20.10;67.00;;;;;;5073203;28;20046;-33
2023/08/11 09:53:22;;;;;;;2.30;1.77;;;21.40;82.40;;;;;;5074683;28;20044;-31
2023/08/11 09:55:48;;;;;;;2.55;1.70;;;21.00;82.70;;;;;;5074828;28;20052;-30
2023/08/11 09:58:15;;;;;;;2.17;1.80;;;21.30;73.30;;;;;;5071143;28;20047;-32
2023/08/11 10:00:43;;;;;;;1.98;1.70;;;21.30;82.30;;;;;;5057138;28;20128;-31
2023/08/11 10:03:11;;;;;;;2.13;1.67;;;21.40;82.70;;;;;;5052502;28;20053;-31
2023/08/11 10:05:40;;;;;;;2.55;1.90;;;21.40;75.60;;;;;;5054531;28;20128;-32
2023/08/11 10:08:08;;;;;;;2.53;1.77;;;;;;;;;;5053299;28;20087;-35
2023/08/11 10:10:34;;;;;;;1.98;1.60;;;22.30;70.70;;;;;;5054394;28;20154;-31
2023/08/11 10:13:03;;;;;;;1.95;1.60;;;21.60;65.30;;;;;;5054008;28;20136;-31
2023/08/11 10:15:31;;;;;;;2.25;1.75;;;;;;;;;;5054535;28;20076;-32
2023/08/11 10:17:59;;;;;;;2.10;1.70;;;21.60;65.20;;;;;;5059381;28;20052;-34
2023/08/11 10:20:26;;;;;;;1.90;1.60;;;;;;;;;;5067166;28;20139;-34
2023/08/11 10:22:52;;;;;;;5.07;1.70;;;21.70;79.00;;;;;;5063567;28;20131;-32
2023/08/11 10:25:20;;;;;;;1.95;1.67;;;;;;;;;;5064175;28;20135;-33
2023/08/11 10:27:47;;;;;;;1.95;1.60;;;;;;;;;;5063224;28;20133;-33
2023/08/11 10:30:14;;;;;;;2.20;1.60;;;21.50;82.20;;;;;;5072560;28;20557;-31
2023/08/11 10:32:41;;;;;;;2.65;2.08;;;22.60;82.90;;;;;;5067357;28;20147;-36
2023/08/11 10:35:13;;;;;;;2.45;1.70;;;22.40;82.30;;;;;;5070014;28;20468;-38
2023/08/11 10:37:40;;;;;;;2.95;1.80;;;22.40;82.70;;;;;;5073448;28;20124;-40
2023/08/11 10:40:09;;;;;;;2.45;1.75;;;22.20;66.00;;;;;;5071030;28;20136;-35
2023/08/11 10:42:36;;;;;;;3.80;1.80;;;21.50;72.20;;;;;;5066744;28;20051;-39
2023/08/11 10:45:10;;;;;;;1.85;1.65;;;22.20;82.50;;;;;;5063178;28;20120;-38
2023/08/11 10:47:38;;;;;;;2.38;1.45;;;22.00;69.50;;;;;;5061858;28;20402;-34
2023/08/11 10:50:05;;;;;;;3.00;1.83;;;;;;;;;;5063586;28;20049;-35
2023/08/11 10:52:34;;;;;;;1.65;1.50;;;22.30;82.50;;;;;;5062045;28;20123;-40
2023/08/11 10:55:02;;;;;;;2.08;1.58;;;22.00;65.10;;;;;;5065323;28;20429;-33
2023/08/11 10:57:30;;;;;;;2.38;1.75;;;21.60;78.60;;;;;;5072228;28;20390;-37
2023/08/11 10:59:57;;;;;;;2.03;1.70;;;;;;;;;;5062660;28;20055;-36
2023/08/11 11:02:24;;;;;;;2.75;1.90;;;21.80;82.10;;;;;;5063604;28;20461;-35
2023/08/11 11:04:51;;;;;;;2.80;1.70;;;22.30;65.10;;;;;;5062161;28;20133;-37
2023/08/11 11:07:18;;;;;;;2.92;1.60;;;21.90;81.70;;;;;;5062157;28;20401;-39
2023/08/11 11:09:47;;;;;;;2.75;1.70;;;22.60;65.70;;;;;;5069071;28;20482;-36
2023/08/11 11:12:14;;;;;;;2.80;1.90;;;;;;;;;;5064391;28;20063;-36
2023/08/11 11:14:42;;;;;;;2.17;1.55;;;;;;;;;;5062969;28;20048;-32
2023/08/11 11:17:09;;;;;;;1.70;1.50;;;;;;;;;;5070144;28;20068;-31
2023/08/11 11:19:36;;;;;;;1.90;1.58;;;;;;;;;;5066589;28;20132;-34
2023/08/11 11:22:03;;;;;;;2.35;1.65;;;22.30;82.80;;;;;;5057639;28;20049;-31
2023/08/11 11:24:30;;;;;;;4.35;1.80;;;;;;;;;;5059561;28;20128;-33
2023/08/11 11:26:58;;;;;;;1.80;1.60;;;21.90;81.50;;;;;;5062843;28;20139;-31
2023/08/11 11:29:27;;;;;;;2.03;1.60;;;;;;;;;;5062676;28;20049;-31
2023/08/11 11:31:54;;;;;;;2.45;1.45;;;21.60;72.90;;;;;;5064444;28;20048;-31
2023/08/11 11:34:22;;;;;;;2.92;1.85;;;21.90;81.70;;;;;;5061900;28;20102;-31
2023/08/11 11:36:49;;;;;;;2.17;1.67;;;;;;;;;;5065819;28;20390;-31
2023/08/11 11:39:15;;;;;;;2.35;1.50;;;21.60;82.30;;;;;;5072768;28;20048;-30
2023/08/11 11:41:42;;;;;;;2.63;1.65;;;;;;;;;;5071746;28;20127;-34
2023/08/11 11:44:11;;;;;;;2.22;1.52;;;22.40;82.60;;;;;;5071656;28;20564;-31
2023/08/11 11:46:38;;;;;;;2.22;1.38;;;;;;;;;;5072139;28;20049;-31
2023/08/11 11:49:06;;;;;;;2.58;1.70;;;;;;;;;;5072499;28;20080;-33
2023/08/11 11:51:33;;;;;;;1.60;1.40;;;22.50;81.90;;;;;;5072571;28;20048;-31
2023/08/11 11:54:00;;;;;;;2.55;1.70;;;22.00;81.70;;;;;;5072020;28;20131;-32
2023/08/11 11:56:28;;;;;;;1.85;1.55;;;22.30;65.10;;;;;;5071436;28;20476;-35
2023/08/11 11:58:55;;;;;;;2.72;1.50;;;22.30;65.00;;;;;;5069075;28;20111;-34
2023/08/11 12:01:25;;;;;;;1.95;1.58;;;22.30;65.10;;;;;;5062829;28;20498;-31
2023/08/11 12:03:52;;;;;;;1.88;1.58;;;22.20;81.60;;;;;;5051510;28;20048;-31
2023/08/11 12:06:19;;;;;;;2.47;1.70;;;23.10;65.50;;;;;;5052184;28;20060;-34
2023/08/11 12:08:46;;;;;;;2.42;1.67;;;22.50;82.20;;;;;;5052014;28;20067;-33
2023/08/11 12:11:15;;;;;;;2.42;1.50;;;;;;;;;;5052102;28;20057;-31
2023/08/11 12:13:42;;;;;;;1.90;1.60;;;;;;;;;;5051598;28;20055;-31
2023/08/11 12:16:10;;;;;;;2.55;1.60;;;22.30;65.10;;;;;;5052079;28;20088;-32
2023/08/11 12:18:38;;;;;;;2.38;1.60;;;22.30;81.90;;;;;;5051910;28;20128;-30
2023/08/11 12:21:06;;;;;;;2.67;1.77;;;22.50;82.80;;;;;;5051922;28;20127;-31
2023/08/11 12:23:33;;;;;;;3.20;2.10;;;;;;;;;;5051751;28;20050;-31
2023/08/11 12:26:00;;;;;;;5.05;1.75;;;;;;;;;;5051924;28;20111;-32
2023/08/11 12:28:27;;;;;;;3.97;1.60;;;22.30;82.90;;;;;;5065496;28;20453;-31
2023/08/11 12:30:54;;;;;;;1.95;1.50;;;;;;;;;;5051305;28;20084;-32
2023/08/11 12:33:21;;;;;;;4.03;1.63;;;22.60;82.50;;;;;;5051721;28;20135;-30
2023/08/11 12:35:49;;;;;;;2.20;1.73;;;23.40;72.50;;;;;;5051712;28;20048;-31
2023/08/11 12:38:16;;;;;;;2.60;1.77;;;;;;;;;;5051857;28;20123;-34
2023/08/11 12:40:43;;;;;;;3.47;1.80;;;22.30;82.70;;;;;;5051293;28;20132;-32
2023/08/11 12:43:11;;;;;;;3.45;1.75;;;22.40;82.60;;;;;;5051505;28;20254;-31
2023/08/11 12:45:39;;;;;;;3.55;1.80;;;22.10;82.50;;;;;;5052881;28;20072;-33
2023/08/11 12:48:06;;;;;;;3.63;1.60;;;22.30;82.70;;;;;;5058373;28;20044;-31
2023/08/11 12:50:33;;;;;;;2.38;1.63;;;22.30;83.10;;;;;;5071734;28;20049;-31
2023/08/11 12:53:01;;;;;;;3.28;1.63;;;22.80;83.70;;;;;;5071158;28;20053;-30
2023/08/11 12:55:29;;;;;;;3.05;1.60;;;22.40;69.30;;;;;;5055118;28;20117;-30
2023/08/11 12:57:56;;;;;;;2.97;1.90;;;;;;;;;;5051757;28;20434;-30
2023/08/11 13:00:24;;;;;;;2.95;2.10;;;22.40;67.40;;;;;;5051706;28;20080;-33
2023/08/11 13:02:51;;;;;;;2.33;1.73;;;22.00;82.60;;;;;;5057744;28;20044;-31
2023/08/11 13:05:18;;;;;;;2.53;1.95;;;22.50;83.10;;;;;;5062392;28;20110;-32
2023/08/11 13:07:44;;;;;;;3.25;2.00;;;21.90;82.50;;;;;;5051374;28;20647;-30
2023/08/11 13:10:12;;;;;;;4.75;1.90;;;21.30;75.90;;;;;;5058172;28;20053;-35
2023/08/11 13:12:40;;;;;;;3.95;1.80;;;;;;;;;;5068480;28;20123;-31